Latest Observation

25 Stations

15 Minute Data | America/Los_Angeles
as of 9/6/26 2:51 AM PDT
Station Date Time Temp (°F) RH (%) Dew Pt (°F) Wind Spd (mph) Wind Dir (°) Wind Gust (mph) Latest Rain (In) Daily Rain (In) Daily Min Temp (°F) Daily Max Temp (°F)
Rockpile Upper (Cooley) 9/6/26 0245 50.6   1.0 77   23 43.6   6.1 6.7   3.4 NW | 320 8.3   7.9 0.00 0.00 50.1   0.7 52.0   1.3
Rockpile Lower (Cooley) 9/6/26 0230 52.9   0.8 76   14 45.7   3.8 5.3   3.6 NNW | 336 6.8   2.8 0.00 0.00 52.8   0.8 55.4   1.1
Cloverdale-East (Ranch 83) 9/6/26 0245 46.2   9.6 - - 0.1   1.9 E | 100 1.0   4.7 0.00 0.00 45.7   4.9 49.5   6.5
Cloverdale-SE (Ranch 38) 9/6/26 0245 53.8   1.9 79   3 47.4   2.9 0.9   7.0 SE | 130 1.8   11.7 0.00 0.00 53.5   2.0 57.0   0.2
Geyserville-North (Hoffman) 9/6/26 0245 45.8   4.2 90   2 42.9   4.7 0.0   0.2 NNE | 22 0.7   0.5 0.00 0.00 45.6   3.6 48.6   4.8
Geyserville (Ranch 3) 9/6/26 0245 47.5   2.3 86   13 43.6   6.1 0.1   0.1 WSW | 258 0.8   0.8 0.00 0.00 47.4   2.0 49.7   2.3
Geyserville-East (Ranch 40) 9/6/26 0245 53.3   0.8 93   8 51.4   1.5 0.0   1.9 N | 0 0.0   2.7 0.00 0.00 51.3   2.2 53.9   1.6
Geyserville-South (Nervo Station) 9/6/26 0245 52.6   0.6 - - 0.0   0.0 N | 0 0.0   0.0 0.00 0.00 52.0   0.9 55.1   0.7
Peterson (Ranch 09) 9/6/26 0245 46.7   0.4 90   0 44.0   0.4 0.6   0.2 ENE | 57 1.9   0.7 0.00 0.00 46.0   1.0 48.7   1.0
Crazy Creek Ranch 9/6/26 0245 46.4   1.9 93   4 44.4   3.0 0.1   0.3 NW | 306 0.8   0.7 0.00 0.00 46.4   1.2 48.8   1.7
Whitton Ranch (201e) 9/6/26 0245 42.7   1.4 96   0 41.7   1.3 0.3   0.3 E | 95 1.5   1.5 0.00 0.00 42.0   1.7 44.9   2.1
Lytton East (Shop Hill Bottom) 9/6/26 0245 46.9   1.4 92   1 44.8   1.7 0.0   1.3 N | 0 0.0   2.3 0.00 0.00 46.7   1.5 52.9   2.1
Lytton East (Hill 5) 9/6/26 0245 51.9   0.2 94   2 50.3   0.8 0.3   2.3 SSW | 211 1.7   2.0 0.00 0.00 51.6   0.0 53.8   0.1
Lytton West Lower (Lew 6) 9/6/26 0245 46.8   1.4 94   0 45.1   1.4 0.0   0.2 N | 0 0.0   1.4 0.00 0.00 46.2   1.4 51.7   0.2
Lytton West Hill (23PS) 9/6/26 0245 51.4   0.8 89   5 48.2   2.1 2.2   1.6 WNW | 287 3.3   0.8 0.00 0.00 51.2   0.9 55.1   0.9
Big River 9/6/26 0245 50.4   1.7 96   0 49.2   1.7 0.0   0.8 ENE | 70 0.4   1.4 0.00 0.00 50.1   1.9 52.8   0.9
Jimtown-North (Piccolo Ranch 15) 9/6/26 0245 44.6   2.3 86   14 40.8   6.1 0.1   0.3 N | 353 1.1   0.2 0.00 0.00 44.2   2.3 46.8   4.2
HWY 128/Chalk Hill Rd (Landslide) 9/6/26 0200 46.9   1.8 94   1 45.1   2.2 0.0   0.0 N | 0 0.0   0.0 0.00 0.00 46.7   1.8 48.4   1.5
N Chalk Hill Rd (Ranch 63) 9/6/26 0245 44.0   2.6 92   2 42.0   3.1 0.1   0.6 ESE | 114 0.8   2.4 0.00 0.00 43.7   2.7 46.4   2.6
Newman Knights Valley 8/18/26 0015 56.2   1.8 85   4 51.7   0.4 0.8   3.5 NE | 55 2.3   5.8 0.00 0.00 55.0   1.2 88.3   0.6
Knights Valley (Bavarian Lion) 9/6/26 0245 42.8   2.5 95   2 41.5   3.0 1.6   0.6 SE | 136 2.7   0.1 0.00 0.00 42.7   1.9 45.0   2.2
Red Tail 9/6/26 0245 46.7   1.9 91   1 44.1   2.1 2.8   1.2 E | 85 3.5   0.4 0.00 0.00 46.4   1.7 48.3   2.1
Franz Valley (Stornetta) 9/6/26 0245 43.7   2.1 94   2 42.0   2.6 0.2   0.2 SE | 139 1.0   1.6 0.00 0.00 43.6   2.2 45.9   2.2
Upper Dry Creek Valley 9/6/26 0200 47.7   9.8 89   11 44.5   6.2 0.1   1.6 SW | 234 1.2   3.5 0.00 0.00 47.3   10.0 48.8   9.9
Lower Dry Creek Valley 9/6/26 0245 46.5   1.4 96   4 45.6   2.4 0.0   0.0 N | 0 0.0   0.0 0.00 0.00 46.3   1.4 49.3   0.4
Max     53.8 96 51.4 6.7 - 8.3 0.00 0.00 53.5 57.0
Avg     47.9 90 44.9 0.9 - 1.6 0.00 - - -
Min     42.7 76 40.8 0.0 - 0.0 0.00 0.00 42.0 44.9